Time;durP1;ratioP1;P1;durP2;ratioP2;P2;SDS_P1;SDS_P2;PMS_P1;PMS_P2;Temp;Humidity;BMP_temperature;BMP_pressure;BME280_temperature;BME280_humidity;BME280_pressure;Samples;Min_cycle;Max_cycle;Signal;HPM_P1;HPM_P2
2021/03/09 00:02:08;;;;;;;23.92;15.23;;;;;;;;;;10414380;27;20070;-61
2021/03/09 00:07:06;;;;;;;23.33;15.98;;;;;;;;;;10416327;27;20142;-62
2021/03/09 00:12:04;;;;;;;25.20;16.52;;;;;;;;;;10417289;27;20054;-61
2021/03/09 00:17:01;;;;;;;26.13;16.65;;;;;;;;;;10412375;27;20068;-61
2021/03/09 00:21:59;;;;;;;26.08;15.57;;;;;;;;;;10420807;27;20079;-65
2021/03/09 00:26:57;;;;;;;28.50;17.92;;;;;;;;;;10408063;27;20066;-62
2021/03/09 00:31:54;;;;;;;21.38;14.65;;;;;;;;;;10420339;27;20068;-62
2021/03/09 00:36:52;;;;;;;22.23;15.88;;;;;;;;;;10413344;27;20070;-62
2021/03/09 00:41:49;;;;;;;22.63;15.57;;;;;;;;;;10414899;27;20072;-62
2021/03/09 00:46:49;;;;;;;21.60;15.55;;;;;;;;;;10416591;27;20081;-62
2021/03/09 00:51:47;;;;;;;18.02;14.63;;;;;;;;;;10412808;27;20072;-61
2021/03/09 00:56:44;;;;;;;17.90;13.75;;;;;;;;;;10420728;27;20084;-61
2021/03/09 01:01:41;;;;;;;19.85;14.30;;;;;;;;;;10415474;27;20038;-62
2021/03/09 01:06:40;;;;;;;17.17;13.55;;;;;;;;;;10427638;27;20083;-62
2021/03/09 01:11:37;;;;;;;21.65;13.57;;;;;;;;;;10419385;27;20081;-62
2021/03/09 01:16:34;;;;;;;20.40;13.18;;;;;;;;;;10421600;27;20490;-62
2021/03/09 01:21:32;;;;;;;19.35;12.95;;;;;;;;;;10424130;27;20065;-62
2021/03/09 01:26:30;;;;;;;18.90;13.68;;;;;;;;;;10417354;27;20075;-61
2021/03/09 01:31:28;;;;;;;15.80;12.55;;;;;;;;;;10427328;27;20567;-62
2021/03/09 01:36:25;;;;;;;17.17;12.77;;;;;;;;;;10414552;27;20069;-61
2021/03/09 01:41:23;;;;;;;18.73;11.77;;;;;;;;;;10426061;27;20072;-62
2021/03/09 01:46:21;;;;;;;27.48;15.07;;;;;;;;;;10418669;27;20066;-62
2021/03/09 01:51:20;;;;;;;17.77;13.43;;;;;;;;;;10421612;27;20079;-62
2021/03/09 01:56:17;;;;;;;17.17;13.10;;;;;;;;;;10421212;27;20466;-61
2021/03/09 02:01:15;;;;;;;21.63;12.05;;;;;;;;;;10417339;27;20064;-62
2021/03/09 02:06:13;;;;;;;17.73;12.27;;;;;;;;;;10425193;27;20046;-62
2021/03/09 02:11:15;;;;;;;16.95;12.93;;;;;;;;;;10411970;27;20510;-62
2021/03/09 02:16:15;;;;;;;16.88;11.63;;;;;;;;;;10413460;27;20066;-61
2021/03/09 02:21:48;;;;;;;14.80;10.88;;;;;;;;;;10412203;27;20066;-61
2021/03/09 02:27:00;;;;;;;17.35;12.00;;;;;;;;;;10421701;27;20080;-61
2021/03/09 02:31:58;;;;;;;14.27;10.45;;;;;;;;;;10413789;27;20097;-61
2021/03/09 02:36:56;;;;;;;15.40;9.55;;;;;;;;;;10424826;27;20064;-61
2021/03/09 02:41:55;;;;;;;13.45;9.30;;;;;;;;;;10411178;27;20460;-62
2021/03/09 02:46:52;;;;;;;11.75;8.60;;;;;;;;;;10410645;27;20096;-61
2021/03/09 02:51:56;;;;;;;13.55;8.43;;;;;;;;;;10411869;27;20058;-62
2021/03/09 02:56:54;;;;;;;11.32;8.00;;;;;;;;;;10410475;27;20039;-61
2021/03/09 03:01:52;;;;;;;11.95;8.23;;;;;;;;;;10422224;27;20068;-61
2021/03/09 03:06:51;;;;;;;9.88;7.25;;;;;;;;;;10416162;27;20511;-61
2021/03/09 03:11:50;;;;;;;9.80;7.40;;;;;;;;;;10419216;27;20466;-61
2021/03/09 03:16:48;;;;;;;14.15;7.50;;;;;;;;;;10418056;27;20062;-61
2021/03/09 03:21:46;;;;;;;9.15;6.88;;;;;;;;;;10414636;27;20149;-61
2021/03/09 03:26:44;;;;;;;8.60;7.15;;;;;;;;;;10421495;27;20065;-61
2021/03/09 03:31:43;;;;;;;11.25;6.57;;;;;;;;;;10412607;27;20062;-61
2021/03/09 03:36:41;;;;;;;10.13;6.72;;;;;;;;;;10408928;27;20202;-61
2021/03/09 03:41:38;;;;;;;9.18;6.78;;;;;;;;;;10421172;27;20505;-61
2021/03/09 03:46:35;;;;;;;8.68;6.45;;;;;;;;;;10413781;27;20070;-61
2021/03/09 03:51:36;;;;;;;8.90;6.63;;;;;;;;;;10415594;27;20467;-60
2021/03/09 03:56:38;;;;;;;12.55;9.00;;;;;;;;;;10416339;27;20062;-61
2021/03/09 04:01:36;;;;;;;13.65;8.60;;;;;;;;;;10417588;27;20481;-61
2021/03/09 04:06:36;;;;;;;20.52;10.85;;;;;;;;;;10415860;27;20077;-60
2021/03/09 04:11:33;;;;;;;40.28;23.92;;;;;;;;;;10414809;27;20072;-61
2021/03/09 04:16:31;;;;;;;13.35;10.02;;;;;;;;;;10418734;27;20076;-61
2021/03/09 04:21:29;;;;;;;12.05;9.02;;;;;;;;;;10410325;27;20146;-61
2021/03/09 04:26:28;;;;;;;14.18;9.40;;;;;;;;;;10408016;27;20061;-61
2021/03/09 04:31:26;;;;;;;12.15;7.93;;;;;;;;;;10406454;27;20470;-61
2021/03/09 04:36:24;;;;;;;15.45;9.27;;;;;;;;;;10419368;27;20060;-61
2021/03/09 04:41:22;;;;;;;12.35;8.35;;;;;;;;;;10412647;27;20062;-61
2021/03/09 04:46:21;;;;;;;12.63;7.20;;;;;;;;;;10411403;27;20091;-61
2021/03/09 04:51:20;;;;;;;10.05;7.50;;;;;;;;;;10410144;27;20588;-61
2021/03/09 04:56:17;;;;;;;10.20;7.82;;;;;;;;;;10408157;27;20076;-61
2021/03/09 05:01:15;;;;;;;12.95;8.55;;;;;;;;;;10418051;27;20069;-61
2021/03/09 05:06:13;;;;;;;12.43;9.13;;;;;;;;;;10407497;27;20098;-61
2021/03/09 05:11:10;;;;;;;18.83;12.68;;;;;;;;;;10406550;27;20076;-61
2021/03/09 05:16:08;;;;;;;28.75;18.73;;;;;;;;;;10417319;27;20080;-62
2021/03/09 05:21:05;;;;;;;21.50;12.40;;;;;;;;;;10412833;27;20065;-60
2021/03/09 05:26:03;;;;;;;17.02;10.02;;;;;;;;;;10412959;27;20060;-61
2021/03/09 05:31:01;;;;;;;15.10;8.82;;;;;;;;;;10416870;27;20077;-62
2021/03/09 05:35:58;;;;;;;10.43;6.97;;;;;;;;;;10408821;27;20520;-62
2021/03/09 05:40:56;;;;;;;10.68;6.70;;;;;;;;;;10419284;27;20553;-61
2021/03/09 05:45:56;;;;;;;10.10;6.85;;;;;;;;;;10413608;27;20105;-61
2021/03/09 05:50:54;;;;;;;53.03;22.70;;;;;;;;;;10425901;27;20076;-62
2021/03/09 05:55:52;;;;;;;8.48;6.10;;;;;;;;;;10415524;27;20062;-62
2021/03/09 06:00:49;;;;;;;10.45;7.05;;;;;;;;;;10417430;27;20313;-62
2021/03/09 06:05:48;;;;;;;9.82;6.55;;;;;;;;;;10417905;27;20501;-62
2021/03/09 06:10:47;;;;;;;7.85;5.97;;;;;;;;;;10414597;27;20060;-62
2021/03/09 06:15:53;;;;;;;5.78;4.95;;;;;;;;;;10425190;27;20128;-62
2021/03/09 06:21:06;;;;;;;8.65;6.25;;;;;;;;;;10420148;27;20084;-62
2021/03/09 06:26:04;;;;;;;9.98;7.25;;;;;;;;;;10413012;27;20066;-62
2021/03/09 06:31:11;;;;;;;9.90;6.28;;;;;;;;;;10412342;27;20451;-62
2021/03/09 06:36:11;;;;;;;9.45;7.22;;;;;;;;;;10415641;27;20061;-62
2021/03/09 06:41:12;;;;;;;8.00;6.18;;;;;;;;;;10422574;27;20065;-62
2021/03/09 06:46:14;;;;;;;6.70;4.97;;;;;;;;;;10416687;27;20092;-62
2021/03/09 06:51:25;;;;;;;9.45;6.32;;;;;;;;;;10421038;27;20066;-62
2021/03/09 06:56:24;;;;;;;10.80;7.55;;;;;;;;;;10424329;27;20056;-62
2021/03/09 07:01:21;;;;;;;13.07;9.23;;;;;;;;;;10414819;27;20074;-62
2021/03/09 07:06:19;;;;;;;70.65;43.83;;;;;;;;;;10420181;27;20087;-62
2021/03/09 07:11:18;;;;;;;13.05;8.90;;;;;;;;;;10418091;27;20065;-61
2021/03/09 07:16:16;;;;;;;10.95;8.25;;;;;;;;;;10416028;27;20059;-63
2021/03/09 07:21:14;;;;;;;7.70;5.82;;;;;;;;;;10421623;27;20061;-62
2021/03/09 07:26:14;;;;;;;74.78;23.88;;;;;;;;;;10412641;27;20071;-61
2021/03/09 07:31:12;;;;;;;12.60;8.02;;;;;;;;;;10422235;27;20079;-60
2021/03/09 07:36:10;;;;;;;9.35;5.68;;;;;;;;;;10411468;27;20529;-61
2021/03/09 07:41:08;;;;;;;6.85;4.82;;;;;;;;;;10421996;27;20493;-62
2021/03/09 07:46:07;;;;;;;8.88;5.68;;;;;;;;;;10413185;27;20618;-62
2021/03/09 07:51:05;;;;;;;19.20;10.63;;;;;;;;;;10417842;27;20076;-62
2021/03/09 07:56:13;;;;;;;18.98;9.00;;;;;;;;;;10417209;27;20058;-62
2021/03/09 08:01:10;;;;;;;14.70;8.07;;;;;;;;;;10421544;27;20188;-61
2021/03/09 08:06:09;;;;;;;11.73;7.95;;;;;;;;;;10413779;27;20038;-62
2021/03/09 08:11:07;;;;;;;10.10;7.72;;;;;;;;;;10416507;27;20079;-61
2021/03/09 08:16:30;;;;;;;10.20;7.18;;;;;;;;;;10417262;27;20038;-62
2021/03/09 08:21:42;;;;;;;8.15;5.78;;;;;;;;;;10416068;27;20040;-62
2021/03/09 08:26:48;;;;;;;9.90;7.05;;;;;;;;;;10408455;27;20087;-62
2021/03/09 08:31:45;;;;;;;30.10;15.57;;;;;;;;;;10416451;27;20097;-62
2021/03/09 08:36:43;;;;;;;22.63;11.55;;;;;;;;;;10412083;27;20082;-62
2021/03/09 08:41:55;;;;;;;18.05;11.68;;;;;;;;;;10420711;27;20079;-62
2021/03/09 08:46:54;;;;;;;26.27;13.45;;;;;;;;;;10408404;27;20078;-62
2021/03/09 08:51:51;;;;;;;31.25;17.05;;;;;;;;;;10416082;27;20060;-62
2021/03/09 08:56:49;;;;;;;12.07;8.60;;;;;;;;;;10416012;27;20058;-62
2021/03/09 09:01:46;;;;;;;17.00;12.70;;;;;;;;;;10411780;27;20083;-62
2021/03/09 09:06:45;;;;;;;36.67;15.45;;;;;;;;;;10420398;27;20523;-62
2021/03/09 09:11:42;;;;;;;31.02;12.57;;;;;;;;;;10404539;27;20064;-62
2021/03/09 09:16:40;;;;;;;12.77;8.10;;;;;;;;;;10406928;27;20066;-62
2021/03/09 09:21:45;;;;;;;14.77;7.90;;;;;;;;;;10423892;27;20484;-63
2021/03/09 09:26:42;;;;;;;28.92;14.13;;;;;;;;;;10415654;27;20038;-62
2021/03/09 09:31:39;;;;;;;27.05;12.35;;;;;;;;;;10407928;27;20483;-62
2021/03/09 09:36:44;;;;;;;23.33;12.30;;;;;;;;;;10420068;27;20038;-62
2021/03/09 09:41:50;;;;;;;24.03;10.47;;;;;;;;;;10424422;27;20037;-62
2021/03/09 09:46:47;;;;;;;13.70;9.80;;;;;;;;;;10413663;27;20043;-62
2021/03/09 09:51:46;;;;;;;10.95;9.30;;;;;;;;;;10413501;27;20076;-62
2021/03/09 09:56:49;;;;;;;10.15;7.95;;;;;;;;;;10413489;27;20525;-62
2021/03/09 10:01:50;;;;;;;25.65;11.65;;;;;;;;;;10413946;27;20081;-62
2021/03/09 10:06:48;;;;;;;24.23;14.93;;;;;;;;;;10413111;27;20062;-62
2021/03/09 10:11:45;;;;;;;40.33;21.42;;;;;;;;;;10406906;27;20072;-62
2021/03/09 10:16:44;;;;;;;13.68;10.02;;;;;;;;;;10418112;27;20062;-62
2021/03/09 10:21:42;;;;;;;16.85;9.63;;;;;;;;;;10421411;27;20448;-62
2021/03/09 10:26:41;;;;;;;11.65;8.82;;;;;;;;;;10421661;27;20066;-63
2021/03/09 10:31:39;;;;;;;13.32;10.05;;;;;;;;;;10416583;27;20068;-62
2021/03/09 10:36:47;;;;;;;33.17;21.80;;;;;;;;;;10423800;27;20058;-62
2021/03/09 10:41:45;;;;;;;13.80;9.70;;;;;;;;;;10420566;27;20105;-62
2021/03/09 10:46:42;;;;;;;12.02;10.50;;;;;;;;;;10420000;27;20074;-62
2021/03/09 10:51:39;;;;;;;19.98;10.85;;;;;;;;;;10416249;27;20071;-62
2021/03/09 10:56:39;;;;;;;15.75;11.43;;;;;;;;;;10424459;27;20071;-63
2021/03/09 11:01:36;;;;;;;18.27;12.05;;;;;;;;;;10424256;27;20493;-62
2021/03/09 11:06:34;;;;;;;15.38;11.68;;;;;;;;;;10411568;27;20530;-61
2021/03/09 11:11:31;;;;;;;22.67;12.50;;;;;;;;;;10410490;27;20066;-61
2021/03/09 11:16:30;;;;;;;20.95;14.23;;;;;;;;;;10419243;27;20068;-61
2021/03/09 11:21:28;;;;;;;19.83;13.40;;;;;;;;;;10417617;27;20066;-61
2021/03/09 11:26:28;;;;;;;21.27;15.23;;;;;;;;;;10415764;27;20072;-61
2021/03/09 11:31:26;;;;;;;17.88;13.43;;;;;;;;;;10420100;27;20069;-61
2021/03/09 11:36:24;;;;;;;17.92;10.45;;;;;;;;;;10412860;27;20069;-61
2021/03/09 11:41:21;;;;;;;20.73;14.25;;;;;;;;;;10422166;27;20079;-61
2021/03/09 11:46:19;;;;;;;18.85;11.93;;;;;;;;;;10408913;27;20162;-61
2021/03/09 11:51:16;;;;;;;23.88;17.00;;;;;;;;;;10409126;27;20073;-61
2021/03/09 11:56:15;;;;;;;17.10;12.38;;;;;;;;;;10417915;27;20512;-61
2021/03/09 12:01:12;;;;;;;12.95;11.02;;;;;;;;;;10416462;27;20046;-62
2021/03/09 12:06:11;;;;;;;16.38;12.52;;;;;;;;;;10414976;27;20084;-61
2021/03/09 12:11:08;;;;;;;24.65;16.40;;;;;;;;;;10420329;27;20065;-61
2021/03/09 12:16:06;;;;;;;14.52;11.27;;;;;;;;;;10410465;27;20066;-61
2021/03/09 12:21:04;;;;;;;21.90;15.90;;;;;;;;;;10408237;27;20502;-61
2021/03/09 12:26:02;;;;;;;24.10;15.95;;;;;;;;;;10420156;27;20096;-61
2021/03/09 12:30:59;;;;;;;20.15;14.52;;;;;;;;;;10396638;27;20176;-62
2021/03/09 12:35:57;;;;;;;24.33;19.30;;;;;;;;;;10420917;27;20068;-61
2021/03/09 12:40:55;;;;;;;19.23;14.20;;;;;;;;;;10407773;27;20443;-61
2021/03/09 12:45:52;;;;;;;20.83;14.20;;;;;;;;;;10419507;27;20080;-61
2021/03/09 12:50:49;;;;;;;29.17;19.27;;;;;;;;;;10412819;27;20476;-61
2021/03/09 12:55:47;;;;;;;21.63;14.95;;;;;;;;;;10421925;27;20068;-61
2021/03/09 13:00:45;;;;;;;70.18;39.10;;;;;;;;;;10424417;27;20065;-61
2021/03/09 13:05:42;;;;;;;72.18;38.13;;;;;;;;;;10417776;27;20621;-61
2021/03/09 13:10:44;;;;;;;37.78;21.92;;;;;;;;;;10426315;27;20074;-61
2021/03/09 13:15:42;;;;;;;29.45;15.98;;;;;;;;;;10417304;27;20073;-61
2021/03/09 13:20:39;;;;;;;42.38;21.83;;;;;;;;;;10414578;27;20066;-61
2021/03/09 13:25:36;;;;;;;62.92;32.38;;;;;;;;;;10426367;27;20068;-62
2021/03/09 13:30:34;;;;;;;130.10;59.72;;;;;;;;;;10419957;27;20105;-62
2021/03/09 13:35:32;;;;;;;89.93;43.53;;;;;;;;;;10421544;27;20073;-61
2021/03/09 13:40:29;;;;;;;82.85;43.20;;;;;;;;;;10423579;27;20072;-61
2021/03/09 13:45:27;;;;;;;54.50;31.15;;;;;;;;;;10416662;27;20055;-61
2021/03/09 13:50:24;;;;;;;66.45;38.22;;;;;;;;;;10413282;27;20078;-61
2021/03/09 13:55:22;;;;;;;34.50;21.83;;;;;;;;;;10420786;27;20462;-61
2021/03/09 14:00:20;;;;;;;27.55;17.70;;;;;;;;;;10422548;27;20034;-61
2021/03/09 14:05:25;;;;;;;24.02;17.92;;;;;;;;;;10420423;27;20072;-61
2021/03/09 14:10:23;;;;;;;36.00;23.70;;;;;;;;;;10421518;27;20073;-61
2021/03/09 14:15:20;;;;;;;25.55;17.10;;;;;;;;;;10417296;27;20079;-62
2021/03/09 14:20:18;;;;;;;19.92;14.65;;;;;;;;;;10425675;27;20111;-62
2021/03/09 14:25:16;;;;;;;22.98;16.25;;;;;;;;;;10412482;27;20061;-61
2021/03/09 14:30:15;;;;;;;28.33;21.35;;;;;;;;;;10425095;27;20072;-62
2021/03/09 14:35:13;;;;;;;62.58;38.80;;;;;;;;;;10416003;27;20061;-62
2021/03/09 14:40:12;;;;;;;19.83;16.13;;;;;;;;;;10421555;27;20057;-62
2021/03/09 14:45:10;;;;;;;26.25;17.08;;;;;;;;;;10418340;27;20502;-62
2021/03/09 14:50:09;;;;;;;21.63;16.20;;;;;;;;;;10417945;27;20088;-62
2021/03/09 14:55:07;;;;;;;21.48;15.25;;;;;;;;;;10420739;27;20074;-62
2021/03/09 15:00:06;;;;;;;40.72;29.33;;;;;;;;;;10415433;27;20103;-62
2021/03/09 15:05:04;;;;;;;38.78;30.60;;;;;;;;;;10423001;27;20077;-62
2021/03/09 15:10:05;;;;;;;36.80;27.13;;;;;;;;;;10413048;27;20077;-60
2021/03/09 15:15:02;;;;;;;57.38;35.65;;;;;;;;;;10410333;27;20581;-62
2021/03/09 15:20:00;;;;;;;29.85;21.98;;;;;;;;;;10422504;27;20067;-63
2021/03/09 15:24:57;;;;;;;28.77;20.52;;;;;;;;;;10414542;27;20073;-62
2021/03/09 15:29:55;;;;;;;23.38;18.55;;;;;;;;;;10417825;27;20069;-62
2021/03/09 15:34:52;;;;;;;32.58;20.80;;;;;;;;;;10419185;27;20463;-62
2021/03/09 15:39:50;;;;;;;37.35;22.70;;;;;;;;;;10412613;27;20525;-60
2021/03/09 15:44:47;;;;;;;30.83;21.23;;;;;;;;;;10422066;27;20063;-60
2021/03/09 15:49:45;;;;;;;25.95;20.17;;;;;;;;;;10407465;27;20085;-60
2021/03/09 15:54:43;;;;;;;38.83;27.90;;;;;;;;;;10421904;27;20086;-60
2021/03/09 15:59:42;;;;;;;37.60;25.52;;;;;;;;;;10411623;27;20077;-60
2021/03/09 16:04:40;;;;;;;44.97;31.77;;;;;;;;;;10417662;27;20071;-61
2021/03/09 16:09:38;;;;;;;47.50;36.33;;;;;;;;;;10417159;27;20069;-61
2021/03/09 16:14:35;;;;;;;45.22;32.92;;;;;;;;;;10412700;27;20071;-60
2021/03/09 16:19:32;;;;;;;44.20;30.30;;;;;;;;;;10420307;27;20370;-62
2021/03/09 16:24:30;;;;;;;34.40;24.52;;;;;;;;;;10410885;27;20482;-62
2021/03/09 16:29:28;;;;;;;73.18;41.72;;;;;;;;;;10398234;27;20072;-62
2021/03/09 16:34:26;;;;;;;42.08;25.40;;;;;;;;;;10409055;27;20054;-62
2021/03/09 16:39:23;;;;;;;57.67;36.75;;;;;;;;;;10415297;27;20074;-62
2021/03/09 16:44:20;;;;;;;70.50;43.05;;;;;;;;;;10418030;27;20062;-62
2021/03/09 16:49:19;;;;;;;39.38;29.70;;;;;;;;;;10411266;27;20076;-63
2021/03/09 16:54:17;;;;;;;72.90;41.30;;;;;;;;;;10420581;27;20133;-62
2021/03/09 16:59:14;;;;;;;42.58;32.72;;;;;;;;;;10410621;27;20093;-62
2021/03/09 17:04:12;;;;;;;35.40;26.33;;;;;;;;;;10420695;27;20493;-62
2021/03/09 17:09:10;;;;;;;36.58;28.30;;;;;;;;;;10412997;27;20089;-62
2021/03/09 17:14:07;;;;;;;53.72;31.85;;;;;;;;;;10416122;27;20065;-61
2021/03/09 17:19:04;;;;;;;40.35;29.42;;;;;;;;;;10417079;27;20077;-62
2021/03/09 17:24:02;;;;;;;51.78;33.20;;;;;;;;;;10409427;27;20113;-62
2021/03/09 17:29:00;;;;;;;41.90;31.40;;;;;;;;;;10420342;27;20072;-62
2021/03/09 17:33:58;;;;;;;111.40;55.95;;;;;;;;;;10406628;27;20065;-62
2021/03/09 17:38:55;;;;;;;31.08;24.50;;;;;;;;;;10400708;27;20060;-61
2021/03/09 17:43:53;;;;;;;44.75;30.27;;;;;;;;;;10419345;27;20054;-62
2021/03/09 17:48:51;;;;;;;37.72;24.58;;;;;;;;;;10420441;27;20090;-62
2021/03/09 17:53:48;;;;;;;31.10;24.70;;;;;;;;;;10422955;27;20077;-62
2021/03/09 17:58:46;;;;;;;41.28;31.20;;;;;;;;;;10417224;27;20438;-62
2021/03/09 18:03:43;;;;;;;36.08;25.13;;;;;;;;;;10426588;27;20074;-62
2021/03/09 18:08:41;;;;;;;30.52;22.73;;;;;;;;;;10415568;27;20064;-62
2021/03/09 18:13:39;;;;;;;34.15;26.27;;;;;;;;;;10406262;27;20091;-64
2021/03/09 18:18:36;;;;;;;41.03;25.58;;;;;;;;;;10418625;27;20076;-61
2021/03/09 18:23:34;;;;;;;37.00;25.92;;;;;;;;;;10418928;27;20067;-61
2021/03/09 18:28:33;;;;;;;35.08;24.75;;;;;;;;;;10422345;27;20045;-62
2021/03/09 18:33:31;;;;;;;30.52;19.70;;;;;;;;;;10416507;27;20068;-61
2021/03/09 18:38:28;;;;;;;25.15;18.63;;;;;;;;;;10424800;27;20071;-63
2021/03/09 18:43:26;;;;;;;22.15;18.35;;;;;;;;;;10411996;27;20062;-61
2021/03/09 18:48:25;;;;;;;30.85;21.95;;;;;;;;;;10424107;27;20118;-63
2021/03/09 18:53:22;;;;;;;32.45;21.90;;;;;;;;;;10416554;27;20076;-63
2021/03/09 18:58:19;;;;;;;28.20;17.92;;;;;;;;;;10417314;27;20073;-62
2021/03/09 19:03:17;;;;;;;30.50;22.35;;;;;;;;;;10420792;27;20069;-62
2021/03/09 19:08:15;;;;;;;29.08;17.73;;;;;;;;;;10414769;27;20072;-62
2021/03/09 19:13:12;;;;;;;20.52;15.55;;;;;;;;;;10421977;27;20084;-63
2021/03/09 19:18:10;;;;;;;26.60;17.27;;;;;;;;;;10410992;27;20058;-63
2021/03/09 19:23:07;;;;;;;18.60;14.35;;;;;;;;;;10404520;27;20072;-63
2021/03/09 19:28:06;;;;;;;24.38;16.08;;;;;;;;;;10416842;27;20392;-64
2021/03/09 19:33:04;;;;;;;26.00;16.50;;;;;;;;;;10395263;27;20473;-62
2021/03/09 19:38:01;;;;;;;22.17;17.55;;;;;;;;;;10402708;27;20593;-64
2021/03/09 19:42:59;;;;;;;26.15;18.55;;;;;;;;;;10374684;27;20099;-62
2021/03/09 19:47:57;;;;;;;28.23;22.27;;;;;;;;;;10412623;27;20083;-63
2021/03/09 19:52:54;;;;;;;42.60;31.80;;;;;;;;;;10347348;27;20472;-62
2021/03/09 19:57:52;;;;;;;31.27;22.02;;;;;;;;;;10354323;27;20634;-63
2021/03/09 20:02:53;;;;;;;31.80;22.90;;;;;;;;;;10338406;27;20068;-63
2021/03/09 20:07:52;;;;;;;33.80;24.30;;;;;;;;;;10345375;27;20073;-63
2021/03/09 20:12:50;;;;;;;30.33;18.70;;;;;;;;;;10326500;27;20064;-63
2021/03/09 20:17:48;;;;;;;33.28;22.00;;;;;;;;;;10385934;27;20080;-62
2021/03/09 20:22:45;;;;;;;32.58;20.25;;;;;;;;;;10419327;27;20066;-63
2021/03/09 20:27:43;;;;;;;45.17;25.13;;;;;;;;;;10410558;27;20083;-62
2021/03/09 20:32:41;;;;;;;44.00;26.90;;;;;;;;;;10421034;27;20079;-63
2021/03/09 20:37:39;;;;;;;44.25;25.33;;;;;;;;;;10408640;27;20076;-63
2021/03/09 20:42:38;;;;;;;35.60;21.17;;;;;;;;;;10419941;27;20492;-63
2021/03/09 20:47:36;;;;;;;32.00;21.60;;;;;;;;;;10412127;27;20479;-64
2021/03/09 20:52:34;;;;;;;43.63;25.15;;;;;;;;;;10416445;27;20083;-64
2021/03/09 20:57:31;;;;;;;27.83;19.25;;;;;;;;;;10416812;27;20073;-64
2021/03/09 21:02:28;;;;;;;35.47;21.75;;;;;;;;;;10411467;27;20072;-63
2021/03/09 21:07:27;;;;;;;30.20;18.92;;;;;;;;;;10420234;27;20083;-63
2021/03/09 21:12:24;;;;;;;32.30;19.85;;;;;;;;;;10407432;27;20474;-64
2021/03/09 21:17:21;;;;;;;32.22;20.30;;;;;;;;;;10427134;27;20539;-63
2021/03/09 21:22:19;;;;;;;26.52;18.98;;;;;;;;;;10420526;27;20069;-63
2021/03/09 21:27:19;;;;;;;26.10;18.55;;;;;;;;;;10424403;27;20075;-64
2021/03/09 21:32:16;;;;;;;33.78;22.02;;;;;;;;;;10431105;27;20061;-63
2021/03/09 21:37:15;;;;;;;33.33;21.25;;;;;;;;;;10419458;27;20075;-64
2021/03/09 21:42:12;;;;;;;43.17;26.00;;;;;;;;;;10426011;27;20056;-63
2021/03/09 21:47:10;;;;;;;33.80;22.02;;;;;;;;;;10416280;27;20115;-63
2021/03/09 21:52:08;;;;;;;30.92;19.48;;;;;;;;;;10413784;27;20080;-64
2021/03/09 21:57:06;;;;;;;25.77;16.42;;;;;;;;;;10425573;27;20458;-63
2021/03/09 22:02:03;;;;;;;19.52;13.35;;;;;;;;;;10417717;27;20077;-63
2021/03/09 22:07:02;;;;;;;25.40;16.48;;;;;;;;;;10420259;27;20076;-63
2021/03/09 22:11:59;;;;;;;25.77;18.70;;;;;;;;;;10422324;27;20066;-63
2021/03/09 22:16:57;;;;;;;24.00;15.23;;;;;;;;;;10416279;27;20060;-62
2021/03/09 22:21:54;;;;;;;27.58;15.40;;;;;;;;;;10425613;27;20468;-60
2021/03/09 22:26:52;;;;;;;18.10;14.50;;;;;;;;;;10412217;27;20065;-61
2021/03/09 22:31:50;;;;;;;18.73;14.82;;;;;;;;;;10424560;27;20496;-63
2021/03/09 22:36:47;;;;;;;19.83;13.48;;;;;;;;;;10417525;27;20065;-63
2021/03/09 22:41:44;;;;;;;16.45;11.88;;;;;;;;;;10419117;27;20496;-62
2021/03/09 22:46:42;;;;;;;25.63;13.98;;;;;;;;;;10422217;27;20078;-63
2021/03/09 22:51:40;;;;;;;22.73;15.50;;;;;;;;;;10413870;27;20076;-63
2021/03/09 22:56:37;;;;;;;24.95;14.23;;;;;;;;;;10420870;27;20107;-63
2021/03/09 23:01:34;;;;;;;19.48;13.43;;;;;;;;;;10410458;27;20510;-63
2021/03/09 23:06:50;;;;;;;16.92;12.95;;;;;;;;;;10418487;27;20528;-63
2021/03/09 23:11:47;;;;;;;18.73;13.18;;;;;;;;;;10419701;27;20077;-63
2021/03/09 23:16:44;;;;;;;19.20;13.38;;;;;;;;;;10415546;27;20172;-63
2021/03/09 23:21:42;;;;;;;16.52;12.00;;;;;;;;;;10423490;27;20529;-63
2021/03/09 23:26:41;;;;;;;17.02;12.25;;;;;;;;;;10412868;27;20073;-63
2021/03/09 23:31:38;;;;;;;23.75;12.63;;;;;;;;;;10409702;27;20061;-63
2021/03/09 23:36:36;;;;;;;19.25;13.88;;;;;;;;;;10401990;27;20074;-63
2021/03/09 23:41:33;;;;;;;16.95;13.30;;;;;;;;;;10417262;27;20482;-64
2021/03/09 23:46:31;;;;;;;17.45;13.02;;;;;;;;;;10414678;27;20072;-64
2021/03/09 23:51:29;;;;;;;18.80;12.15;;;;;;;;;;10420261;27;20066;-64
2021/03/09 23:56:28;;;;;;;19.42;12.90;;;;;;;;;;10412120;27;20495;-64
